Time;durP1;ratioP1;P1;durP2;ratioP2;P2;SDS_P1;SDS_P2;PMS_P1;PMS_P2;Temp;Humidity;BMP_temperature;BMP_pressure;BME280_temperature;BME280_humidity;BME280_pressure;Samples;Min_cycle;Max_cycle;Signal;HPM_P1;HPM_P2
2023/02/25 00:01:18;;;;;;;22.50;2.27;;;4.20;99.90;;;;;;5056110;28;20497;-84
2023/02/25 00:03:44;;;;;;;14.33;2.07;;;4.20;99.90;;;;;;5056261;28;20123;-84
2023/02/25 00:06:12;;;;;;;14.27;3.00;;;4.20;99.90;;;;;;5072994;28;20097;-84
2023/02/25 00:08:39;;;;;;;16.93;2.50;;;4.40;99.90;;;;;;5072464;28;20035;-84
2023/02/25 00:11:06;;;;;;;13.93;1.93;;;4.30;99.90;;;;;;5072784;28;20473;-84
2023/02/25 00:13:33;;;;;;;17.53;2.00;;;4.30;99.90;;;;;;5072366;28;20020;-84
2023/02/25 00:16:02;;;;;;;14.60;2.30;;;4.20;99.90;;;;;;5072768;28;20028;-85
2023/02/25 00:18:29;;;;;;;14.13;1.93;;;4.30;99.90;;;;;;5072686;28;20465;-84
2023/02/25 00:20:56;;;;;;;16.17;2.00;;;4.20;99.90;;;;;;5072811;28;20024;-83
2023/02/25 00:23:22;;;;;;;13.67;2.03;;;4.20;99.90;;;;;;5072823;28;20047;-84
2023/02/25 00:25:47;;;;;;;15.07;3.03;;;4.20;99.90;;;;;;5055813;28;20469;-84
2023/02/25 00:28:13;;;;;;;12.23;2.13;;;4.10;99.90;;;;;;5056051;28;20089;-84
2023/02/25 00:30:41;;;;;;;14.13;2.27;;;4.10;99.90;;;;;;5073596;28;20032;-83
2023/02/25 00:33:07;;;;;;;18.60;2.43;;;4.30;99.90;;;;;;5072617;28;20094;-84
2023/02/25 00:35:33;;;;;;;17.27;2.20;;;4.20;99.90;;;;;;5055768;28;20029;-84
2023/02/25 00:37:59;;;;;;;16.60;2.43;;;4.10;99.90;;;;;;5072466;28;20021;-85
2023/02/25 00:40:25;;;;;;;19.07;2.83;;;4.20;99.90;;;;;;5071940;28;20453;-85
2023/02/25 00:42:51;;;;;;;20.67;2.60;;;4.20;99.90;;;;;;5055643;28;20028;-83
2023/02/25 00:45:17;;;;;;;15.23;2.40;;;4.20;99.90;;;;;;5039005;28;20071;-83
2023/02/25 00:47:43;;;;;;;18.30;2.27;;;4.20;99.90;;;;;;5071826;28;20476;-82
2023/02/25 00:50:09;;;;;;;16.43;2.97;;;4.30;99.90;;;;;;5071709;28;20028;-83
2023/02/25 00:52:37;;;;;;;26.40;2.33;;;4.30;99.90;;;;;;5072182;28;20024;-85
2023/02/25 00:55:03;;;;;;;17.43;2.07;;;4.40;99.90;;;;;;5073669;28;20087;-84
2023/02/25 00:57:29;;;;;;;20.33;2.17;;;4.30;99.90;;;;;;5073112;28;20033;-83
2023/02/25 00:59:55;;;;;;;17.27;2.23;;;4.40;99.90;;;;;;5071910;28;20399;-84
2023/02/25 01:02:21;;;;;;;24.00;2.40;;;4.40;99.90;;;;;;5072127;28;20543;-83
2023/02/25 01:04:47;;;;;;;19.30;2.50;;;4.40;99.90;;;;;;5071684;28;20021;-84
2023/02/25 01:07:12;;;;;;;27.37;2.40;;;4.40;99.90;;;;;;5054974;28;20120;-84
2023/02/25 01:09:38;;;;;;;29.40;4.93;;;4.40;99.90;;;;;;5054895;28;20024;-85
2023/02/25 01:12:04;;;;;;;18.07;2.50;;;4.50;99.90;;;;;;5071944;28;20036;-84
2023/02/25 01:14:30;;;;;;;20.67;2.20;;;4.50;99.90;;;;;;5054974;28;20024;-85
2023/02/25 01:16:59;;;;;;;21.87;2.50;;;4.50;99.90;;;;;;5055307;28;20025;-84
2023/02/25 01:19:25;;;;;;;13.00;1.50;;;4.50;99.90;;;;;;5071771;28;20405;-85
2023/02/25 01:21:54;;;;;;;12.90;1.90;;;4.50;99.90;;;;;;5073385;28;20032;-83
2023/02/25 01:24:28;;;;;;;13.37;1.73;;;4.40;99.90;;;;;;5073032;28;20020;-84
2023/02/25 01:26:57;;;;;;;12.73;1.63;;;4.60;99.90;;;;;;5071992;28;20024;-83
2023/02/25 01:29:32;;;;;;;20.90;2.00;;;4.60;99.90;;;;;;5072122;28;20021;-84
2023/02/25 01:32:00;;;;;;;12.73;2.43;;;4.60;99.90;;;;;;5070853;28;20033;-84
2023/02/25 01:34:27;;;;;;;15.03;1.87;;;4.50;99.90;;;;;;5071599;28;20025;-85
2023/02/25 01:36:54;;;;;;;22.20;2.23;;;4.60;99.90;;;;;;5072229;28;20083;-83
2023/02/25 01:39:21;;;;;;;15.13;2.10;;;4.60;99.90;;;;;;5072056;28;20028;-85
2023/02/25 01:41:49;;;;;;;15.10;1.73;;;4.50;99.90;;;;;;5072066;28;20021;-85
2023/02/25 01:44:31;;;;;;;19.17;2.03;;;4.60;99.90;;;;;;5056354;28;20116;-85
2023/02/25 01:46:57;;;;;;;16.53;2.00;;;4.50;99.90;;;;;;5072017;28;20044;-85
2023/02/25 01:49:36;;;;;;;13.20;1.57;;;4.50;99.90;;;;;;5055537;28;20037;-86
2023/02/25 01:52:12;;;;;;;9.80;1.47;;;4.50;99.90;;;;;;5071652;28;20086;-83
2023/02/25 01:54:38;;;;;;;9.97;1.73;;;4.50;99.90;;;;;;5071298;28;20027;-84
2023/02/25 01:57:10;;;;;;;16.77;1.83;;;4.50;99.90;;;;;;5055089;28;20021;-83
2023/02/25 01:59:37;;;;;;;11.77;2.00;;;4.50;99.90;;;;;;5071597;28;20024;-83
2023/02/25 02:02:03;;;;;;;14.10;1.93;;;4.60;99.90;;;;;;5071664;28;20021;-82
2023/02/25 02:04:30;;;;;;;15.10;1.33;;;4.60;99.90;;;;;;5071613;28;20054;-83
2023/02/25 02:06:58;;;;;;;9.30;1.13;;;4.60;99.90;;;;;;5071630;28;20090;-83
2023/02/25 02:09:26;;;;;;;13.47;1.30;;;4.50;99.90;;;;;;5072310;28;20506;-84
2023/02/25 02:11:52;;;;;;;13.23;1.33;;;4.60;99.90;;;;;;5072256;28;20086;-84
2023/02/25 02:14:22;;;;;;;11.67;1.60;;;4.50;99.90;;;;;;5070544;28;20029;-84
2023/02/25 02:17:09;;;;;;;13.10;1.50;;;4.50;99.90;;;;;;5072624;28;20020;-84
2023/02/25 02:19:48;;;;;;;16.80;1.13;;;4.60;99.90;;;;;;5076370;28;20032;-85
2023/02/25 02:22:26;;;;;;;9.57;1.63;;;4.60;99.90;;;;;;5074867;28;20090;-83
2023/02/25 02:24:51;;;;;;;14.37;1.97;;;4.60;99.90;;;;;;5075382;28;20027;-85
2023/02/25 02:27:27;;;;;;;19.43;2.77;;;4.60;99.90;;;;;;5075867;28;20024;-85
2023/02/25 02:30:07;;;;;;;14.13;1.57;;;4.60;99.90;;;;;;5078881;28;20020;-85
2023/02/25 02:32:42;;;;;;;12.23;1.47;;;4.60;99.90;;;;;;5076393;28;20037;-86
2023/02/25 02:35:31;;;;;;;13.97;1.47;;;4.60;99.90;;;;;;5076751;28;20029;-85
2023/02/25 02:38:11;;;;;;;12.43;2.17;;;4.70;99.90;;;;;;5075821;28;20055;-86
2023/02/25 02:41:22;;;;;;;11.90;1.90;;;4.70;99.90;;;;;;5076749;28;20020;-85
2023/02/25 02:43:55;;;;;;;17.87;2.77;;;4.70;99.90;;;;;;5075405;28;20124;-84
2023/02/25 02:46:31;;;;;;;12.77;1.50;;;4.70;99.90;;;;;;5076395;28;20080;-84
2023/02/25 02:49:12;;;;;;;19.53;2.00;;;4.60;99.90;;;;;;5075149;28;20020;-84
2023/02/25 02:51:43;;;;;;;13.83;1.57;;;4.70;99.90;;;;;;5074624;28;20040;-86
2023/02/25 02:54:11;;;;;;;14.47;1.90;;;4.70;99.90;;;;;;5075993;28;20025;-85
2023/02/25 02:56:39;;;;;;;11.83;1.60;;;4.70;99.90;;;;;;5058454;28;20024;-85
2023/02/25 02:59:08;;;;;;;11.60;1.77;;;4.70;99.90;;;;;;5074999;28;20500;-85
2023/02/25 03:01:39;;;;;;;18.73;2.00;;;4.70;99.90;;;;;;5076211;28;20051;-85
2023/02/25 03:04:10;;;;;;;15.10;1.93;;;4.70;99.90;;;;;;5075985;28;20028;-84
2023/02/25 03:06:41;;;;;;;13.53;1.93;;;4.70;99.90;;;;;;5076162;28;20020;-85
2023/02/25 03:09:12;;;;;;;15.20;1.97;;;4.70;99.90;;;;;;5076189;28;20473;-85
2023/02/25 03:11:38;;;;;;;21.53;2.40;;;4.80;99.90;;;;;;5076570;28;20036;-84
2023/02/25 03:14:04;;;;;;;16.33;1.63;;;4.60;99.90;;;;;;5074503;28;20025;-84
2023/02/25 03:16:40;;;;;;;16.17;2.30;;;4.80;99.90;;;;;;5057977;28;20025;-84
2023/02/25 03:19:30;;;;;;;14.67;2.13;;;4.70;99.90;;;;;;5074409;28;20120;-84
2023/02/25 03:22:03;;;;;;;17.47;1.70;;;4.80;99.90;;;;;;5076166;28;20461;-84
2023/02/25 03:24:39;;;;;;;14.57;2.07;;;4.80;99.90;;;;;;5075159;28;20021;-83
2023/02/25 03:27:28;;;;;;;19.30;3.00;;;4.80;99.90;;;;;;5073797;28;20021;-83
2023/02/25 03:30:21;;;;;;;21.17;2.13;;;4.80;99.90;;;;;;5075461;28;20028;-84
2023/02/25 03:32:52;;;;;;;17.97;1.80;;;4.80;99.90;;;;;;5074629;28;20032;-82
2023/02/25 03:35:20;;;;;;;25.33;2.97;;;4.80;99.90;;;;;;5073714;28;20020;-83
2023/02/25 03:37:51;;;;;;;15.97;1.77;;;4.80;99.90;;;;;;5057823;28;20075;-85
2023/02/25 03:40:20;;;;;;;19.67;2.23;;;4.80;99.90;;;;;;5075368;28;20066;-84
2023/02/25 03:42:52;;;;;;;19.40;2.43;;;4.80;99.90;;;;;;5075247;28;20021;-84
2023/02/25 03:45:20;;;;;;;17.17;3.70;;;4.90;99.90;;;;;;5073188;28;20048;-84
2023/02/25 03:47:46;;;;;;;12.27;1.80;;;4.80;99.90;;;;;;5074887;28;20052;-83
2023/02/25 03:50:30;;;;;;;13.70;2.30;;;4.90;99.90;;;;;;5039983;28;20522;-85
2023/02/25 03:52:56;;;;;;;15.05;2.95;;;4.90;99.90;;;;;;5075450;28;20130;-84
2023/02/25 03:55:23;;;;;;;13.53;2.10;;;4.90;99.90;;;;;;5073154;28;20032;-84
2023/02/25 03:57:50;;;;;;;14.20;2.03;;;4.90;99.90;;;;;;5072920;28;20024;-83
2023/02/25 04:00:26;;;;;;;14.40;1.90;;;4.90;99.90;;;;;;5073180;28;20084;-84
2023/02/25 04:02:51;;;;;;;18.40;2.17;;;5.00;99.90;;;;;;5073356;28;20112;-83
2023/02/25 04:05:19;;;;;;;16.20;1.90;;;4.90;99.90;;;;;;5056587;28;20119;-83
2023/02/25 04:07:44;;;;;;;15.93;2.40;;;4.90;99.90;;;;;;5057545;28;20036;-84
2023/02/25 04:10:12;;;;;;;22.40;3.00;;;4.90;99.90;;;;;;5056472;28;20021;-85
2023/02/25 04:12:38;;;;;;;20.00;2.30;;;4.90;99.90;;;;;;5072930;28;20074;-82
2023/02/25 04:15:05;;;;;;;15.43;2.23;;;4.90;99.90;;;;;;5055752;28;20025;-84
2023/02/25 04:17:31;;;;;;;15.70;2.27;;;4.80;99.90;;;;;;5072939;28;20112;-82
2023/02/25 04:19:57;;;;;;;13.50;1.63;;;4.80;99.90;;;;;;5038839;28;20028;-84
2023/02/25 04:22:22;;;;;;;11.77;1.50;;;4.70;99.90;;;;;;5074264;28;20086;-83
2023/02/25 04:24:48;;;;;;;12.67;1.70;;;4.80;99.90;;;;;;5072429;28;20483;-83
2023/02/25 04:27:14;;;;;;;13.73;1.33;;;4.80;99.90;;;;;;5072591;28;20477;-83
2023/02/25 04:29:41;;;;;;;13.80;2.17;;;4.70;99.90;;;;;;5056527;28;20038;-85
2023/02/25 04:32:07;;;;;;;27.30;3.53;;;4.80;99.90;;;;;;5073623;28;20059;-82
2023/02/25 04:34:33;;;;;;;18.57;2.03;;;4.80;99.90;;;;;;5054713;28;20954;-84
2023/02/25 04:37:01;;;;;;;10.47;1.97;;;4.70;99.90;;;;;;5071426;28;20036;-84
2023/02/25 04:39:27;;;;;;;17.47;1.83;;;4.70;99.90;;;;;;5055532;28;20078;-85
2023/02/25 04:41:53;;;;;;;14.33;1.80;;;4.70;99.90;;;;;;5070763;28;20028;-85
2023/02/25 04:44:18;;;;;;;19.13;1.60;;;4.80;99.90;;;;;;5072675;28;20030;-84
2023/02/25 04:46:44;;;;;;;10.63;1.83;;;4.60;99.90;;;;;;5072347;28;20166;-84
2023/02/25 04:49:10;;;;;;;18.03;1.80;;;4.50;99.90;;;;;;5071051;28;20079;-83
2023/02/25 04:51:37;;;;;;;14.73;1.80;;;4.50;99.90;;;;;;5071930;28;20045;-83
2023/02/25 04:54:03;;;;;;;18.50;2.60;;;4.40;99.90;;;;;;5072699;28;20089;-84
2023/02/25 04:56:29;;;;;;;8.27;1.60;;;4.40;99.90;;;;;;5071888;28;20107;-83
2023/02/25 04:58:56;;;;;;;12.27;1.57;;;4.40;99.90;;;;;;5073571;28;20028;-83
2023/02/25 05:01:22;;;;;;;17.37;2.53;;;4.20;99.90;;;;;;5055395;28;20029;-82
2023/02/25 05:03:47;;;;;;;14.83;1.83;;;4.20;99.90;;;;;;5072411;28;20108;-84
2023/02/25 05:06:13;;;;;;;16.57;2.70;;;4.20;99.90;;;;;;5055462;28;20480;-83
2023/02/25 05:08:39;;;;;;;18.47;1.60;;;4.20;99.90;;;;;;5073194;28;20025;-86
2023/02/25 05:11:04;;;;;;;15.30;1.90;;;4.20;99.90;;;;;;5072575;28;20109;-84
2023/02/25 05:13:30;;;;;;;15.40;1.73;;;4.20;99.90;;;;;;5073572;28;20075;-86
2023/02/25 05:16:12;;;;;;;11.07;1.90;;;4.10;99.90;;;;;;5072741;28;20060;-86
2023/02/25 05:18:39;;;;;;;13.00;2.20;;;4.20;99.90;;;;;;5071928;28;20028;-85
2023/02/25 05:21:14;;;;;;;21.17;2.77;;;4.30;99.90;;;;;;5072077;28;20119;-86
2023/02/25 05:23:42;;;;;;;19.93;2.23;;;4.30;99.90;;;;;;5071986;28;20540;-84
2023/02/25 05:26:09;;;;;;;19.83;2.87;;;4.30;99.90;;;;;;5055846;28;20485;-84
2023/02/25 05:28:35;;;;;;;21.73;2.17;;;4.30;99.90;;;;;;5073417;28;20028;-85
2023/02/25 05:31:05;;;;;;;26.03;2.63;;;4.30;99.90;;;;;;5071987;28;20033;-84
2023/02/25 05:33:31;;;;;;;20.23;1.83;;;4.30;99.90;;;;;;5072051;28;20021;-85
2023/02/25 05:35:57;;;;;;;18.43;2.63;;;4.30;99.90;;;;;;5055489;28;20031;-85
2023/02/25 05:38:22;;;;;;;16.13;2.20;;;4.40;99.90;;;;;;5072676;28;20055;-85
2023/02/25 05:40:48;;;;;;;15.03;1.83;;;4.40;99.90;;;;;;5072137;28;20115;-85
2023/02/25 05:43:14;;;;;;;14.03;1.83;;;4.40;99.90;;;;;;5072135;28;20109;-83
2023/02/25 05:45:39;;;;;;;17.70;2.43;;;4.60;99.90;;;;;;5054811;28;20049;-84
2023/02/25 05:48:05;;;;;;;19.37;3.20;;;4.50;99.90;;;;;;5071595;28;20554;-84
2023/02/25 05:50:33;;;;;;;13.27;1.50;;;4.50;99.90;;;;;;5071084;28;20473;-84
2023/02/25 05:52:59;;;;;;;15.90;2.13;;;4.50;99.90;;;;;;5041853;28;20029;-84
2023/02/25 05:55:25;;;;;;;12.70;1.43;;;4.50;99.90;;;;;;5076055;28;20427;-84
2023/02/25 05:57:51;;;;;;;15.73;1.50;;;4.60;99.90;;;;;;5075179;28;20416;-83
2023/02/25 06:00:20;;;;;;;21.57;2.50;;;4.60;99.90;;;;;;5058846;28;20031;-84
2023/02/25 06:02:46;;;;;;;14.93;1.20;;;4.60;99.90;;;;;;5059083;28;20025;-83
2023/02/25 06:05:12;;;;;;;14.93;2.00;;;4.60;99.90;;;;;;5075243;28;20021;-83
2023/02/25 06:07:37;;;;;;;15.93;1.90;;;4.60;99.90;;;;;;5058394;28;20029;-83
2023/02/25 06:10:04;;;;;;;12.43;1.97;;;4.60;99.90;;;;;;5075184;28;20187;-83
2023/02/25 06:12:32;;;;;;;15.00;2.37;;;4.60;99.90;;;;;;5075274;28;20394;-83
2023/02/25 06:14:58;;;;;;;12.63;2.10;;;4.60;99.90;;;;;;5075176;28;20112;-84
2023/02/25 06:17:24;;;;;;;13.17;1.80;;;4.60;99.90;;;;;;5075252;28;20134;-83
2023/02/25 06:19:50;;;;;;;16.90;2.40;;;4.60;99.90;;;;;;5076208;28;20024;-83
2023/02/25 06:22:17;;;;;;;26.83;2.20;;;4.60;99.90;;;;;;5058493;28;20465;-84
2023/02/25 06:24:43;;;;;;;14.90;1.67;;;4.60;99.90;;;;;;5041947;28;20065;-84
2023/02/25 06:27:09;;;;;;;22.87;1.87;;;4.60;99.90;;;;;;5076198;28;20029;-83
2023/02/25 06:29:35;;;;;;;15.73;1.33;;;4.60;99.90;;;;;;5058067;28;20495;-83
2023/02/25 06:32:00;;;;;;;15.77;1.43;;;4.60;99.90;;;;;;5074858;28;20131;-83
2023/02/25 06:34:31;;;;;;;13.43;1.53;;;4.50;99.90;;;;;;5041363;28;20129;-84
2023/02/25 06:36:57;;;;;;;11.00;0.90;;;4.50;99.90;;;;;;5058581;28;20143;-83
2023/02/25 06:39:23;;;;;;;16.83;1.60;;;4.50;99.90;;;;;;5057969;28;20112;-84
2023/02/25 06:41:49;;;;;;;13.13;1.27;;;4.40;99.90;;;;;;5057903;28;20032;-83
2023/02/25 06:44:14;;;;;;;14.37;1.03;;;4.40;99.90;;;;;;5058123;28;20032;-84
2023/02/25 06:46:40;;;;;;;14.80;1.93;;;4.40;99.90;;;;;;5076121;28;20060;-84
2023/02/25 06:49:05;;;;;;;11.90;1.60;;;4.40;99.90;;;;;;5075900;28;20032;-83
2023/02/25 06:51:31;;;;;;;17.57;1.50;;;4.30;99.90;;;;;;5041838;28;20455;-83
2023/02/25 06:53:57;;;;;;;13.60;1.63;;;4.30;99.90;;;;;;5074053;28;20067;-84
2023/02/25 06:56:22;;;;;;;13.53;1.63;;;4.30;99.90;;;;;;5073759;28;20032;-84
2023/02/25 06:58:49;;;;;;;8.87;1.60;;;4.30;99.90;;;;;;5075219;28;20465;-84
2023/02/25 07:01:16;;;;;;;14.83;2.67;;;4.30;99.90;;;;;;5070149;28;20025;-84
2023/02/25 07:03:42;;;;;;;13.63;1.40;;;4.30;99.90;;;;;;5073662;28;20021;-83
2023/02/25 07:06:08;;;;;;;16.33;2.00;;;4.40;99.90;;;;;;5063555;28;20090;-86
2023/02/25 07:08:34;;;;;;;14.13;2.40;;;4.40;99.90;;;;;;5061351;28;20033;-85
2023/02/25 07:11:17;;;;;;;17.83;1.80;;;4.40;99.90;;;;;;5085290;28;20074;-84
2023/02/25 07:13:47;;;;;;;21.77;1.95;;;4.40;99.90;;;;;;5082273;28;20052;-84
2023/02/25 07:16:15;;;;;;;13.10;1.80;;;4.40;99.90;;;;;;5081248;28;20070;-84
2023/02/25 07:18:41;;;;;;;14.13;1.23;;;4.40;99.90;;;;;;5085010;28;20023;-85
2023/02/25 07:21:07;;;;;;;17.67;2.23;;;4.40;99.90;;;;;;5084115;28;20024;-84
2023/02/25 07:23:33;;;;;;;20.83;2.50;;;4.40;99.90;;;;;;5098991;28;20012;-84
2023/02/25 07:26:04;;;;;;;15.93;1.80;;;4.50;99.90;;;;;;5067512;28;20021;-84
2023/02/25 07:28:30;;;;;;;14.70;2.20;;;4.50;99.90;;;;;;5070887;28;20036;-81
2023/02/25 07:30:58;;;;;;;18.83;1.97;;;4.50;99.90;;;;;;5068830;28;20039;-84
2023/02/25 07:33:24;;;;;;;13.53;2.03;;;4.60;99.90;;;;;;5094641;28;20547;-85
2023/02/25 07:35:53;;;;;;;14.17;1.33;;;4.60;99.90;;;;;;5094101;28;20044;-84
2023/02/25 07:38:19;;;;;;;15.67;1.90;;;4.60;99.90;;;;;;5093551;28;20103;-84
2023/02/25 07:40:44;;;;;;;10.70;1.50;;;4.60;99.90;;;;;;5093863;28;20051;-85
2023/02/25 07:43:10;;;;;;;13.90;1.57;;;4.70;99.90;;;;;;5075646;28;20035;-84
2023/02/25 07:45:35;;;;;;;10.70;1.50;;;4.70;99.90;;;;;;5062449;28;20045;-84
2023/02/25 07:48:01;;;;;;;15.03;1.80;;;4.70;99.90;;;;;;5082219;28;20082;-84
2023/02/25 07:50:27;;;;;;;17.40;1.63;;;4.80;99.90;;;;;;5078019;28;20031;-84
2023/02/25 07:52:52;;;;;;;14.43;2.30;;;4.80;99.90;;;;;;5073205;28;20549;-84
2023/02/25 07:55:18;;;;;;;13.70;1.60;;;4.90;99.90;;;;;;5072543;28;20032;-84
2023/02/25 07:57:44;;;;;;;10.27;1.20;;;4.90;99.90;;;;;;5056270;28;20372;-84
2023/02/25 08:00:10;;;;;;;17.13;2.10;;;4.90;99.90;;;;;;5066381;28;20021;-84
2023/02/25 08:02:36;;;;;;;11.80;1.20;;;5.00;99.90;;;;;;5056144;28;20063;-84
2023/02/25 08:05:03;;;;;;;16.43;1.53;;;5.00;99.90;;;;;;5067220;28;20032;-85
2023/02/25 08:07:29;;;;;;;15.23;2.90;;;5.10;99.90;;;;;;5046913;28;20040;-84
2023/02/25 08:09:55;;;;;;;15.93;2.13;;;5.20;99.90;;;;;;5073871;28;20029;-85
2023/02/25 08:12:21;;;;;;;12.67;1.20;;;5.20;99.90;;;;;;5072153;28;20507;-84
2023/02/25 08:14:46;;;;;;;14.13;1.63;;;5.30;99.90;;;;;;5071536;28;20413;-85
2023/02/25 08:17:12;;;;;;;13.90;2.30;;;5.40;99.90;;;;;;5073803;28;20031;-84
2023/02/25 08:19:38;;;;;;;17.83;2.53;;;5.50;99.90;;;;;;5072511;28;20035;-84
2023/02/25 08:22:04;;;;;;;6.63;1.33;;;5.60;99.90;;;;;;5073288;28;20028;-84
2023/02/25 08:24:31;;;;;;;15.87;1.87;;;5.60;99.90;;;;;;5072211;28;20056;-84
2023/02/25 08:26:57;;;;;;;14.33;1.83;;;5.60;99.90;;;;;;5041410;28;20111;-84
2023/02/25 08:29:23;;;;;;;13.10;1.40;;;5.70;99.90;;;;;;5072179;28;20111;-85
2023/02/25 08:31:50;;;;;;;10.40;1.63;;;5.70;99.90;;;;;;5049947;28;20101;-84
2023/02/25 08:34:16;;;;;;;10.73;1.43;;;5.80;99.90;;;;;;5071996;28;20054;-85
2023/02/25 08:36:42;;;;;;;9.87;1.43;;;5.90;99.90;;;;;;5057907;28;20029;-85
2023/02/25 08:39:09;;;;;;;10.23;1.37;;;6.00;99.90;;;;;;5055016;28;20017;-84
2023/02/25 08:41:36;;;;;;;9.87;1.27;;;6.10;99.90;;;;;;5073386;28;20039;-84
2023/02/25 08:44:03;;;;;;;12.17;1.80;;;6.10;99.90;;;;;;5082296;28;20106;-84
2023/02/25 08:46:31;;;;;;;10.07;1.63;;;6.20;99.90;;;;;;5080440;28;20101;-84
2023/02/25 08:48:57;;;;;;;10.33;1.10;;;6.20;99.90;;;;;;5081306;28;20032;-84
2023/02/25 08:51:32;;;;;;;12.13;1.43;;;6.30;99.90;;;;;;5079357;28;20041;-85
2023/02/25 08:54:02;;;;;;;8.77;1.00;;;6.30;99.90;;;;;;5074600;28;20373;-85
2023/02/25 08:56:29;;;;;;;9.70;1.70;;;6.40;99.90;;;;;;5085529;28;20024;-84
2023/02/25 08:58:54;;;;;;;7.97;1.10;;;6.40;99.90;;;;;;5073922;28;20024;-85
2023/02/25 09:01:20;;;;;;;11.00;2.07;;;6.50;99.90;;;;;;5066485;28;20437;-85
2023/02/25 09:03:53;;;;;;;11.43;1.10;;;6.50;99.90;;;;;;5056344;28;20085;-83
2023/02/25 09:06:22;;;;;;;8.70;0.80;;;6.60;99.90;;;;;;5059023;28;20029;-83
2023/02/25 09:08:48;;;;;;;8.27;1.20;;;6.70;99.90;;;;;;5069952;28;20107;-84
2023/02/25 09:11:14;;;;;;;9.50;1.37;;;6.80;99.90;;;;;;5072250;28;20032;-85
2023/02/25 09:13:40;;;;;;;7.93;0.80;;;6.70;99.90;;;;;;5080754;28;20032;-84
2023/02/25 09:16:06;;;;;;;10.77;0.90;;;6.70;99.90;;;;;;5079635;28;20024;-84
2023/02/25 09:18:32;;;;;;;4.80;0.70;;;6.80;99.90;;;;;;5086170;28;20494;-84
2023/02/25 09:20:58;;;;;;;7.07;0.90;;;6.80;99.90;;;;;;5054844;28;20032;-84
2023/02/25 09:23:23;;;;;;;5.83;0.90;;;6.90;99.90;;;;;;5071783;28;20143;-85
2023/02/25 09:25:49;;;;;;;8.33;0.67;;;7.00;99.90;;;;;;5065451;28;20036;-84
2023/02/25 09:28:15;;;;;;;8.00;0.80;;;7.10;99.90;;;;;;5052357;28;20116;-84
2023/02/25 09:30:44;;;;;;;3.50;0.50;;;7.10;99.90;;;;;;5069757;28;20037;-81
2023/02/25 09:33:10;;;;;;;4.97;0.77;;;7.20;98.80;;;;;;5075402;28;20473;-84
2023/02/25 09:35:35;;;;;;;5.20;0.57;;;7.20;98.80;;;;;;5053422;28;20029;-84
2023/02/25 09:38:01;;;;;;;4.13;0.50;;;7.10;98.40;;;;;;5051319;28;20028;-85
2023/02/25 09:40:27;;;;;;;6.67;0.50;;;7.20;98.60;;;;;;5075013;28;20314;-85
2023/02/25 09:43:08;;;;;;;3.63;0.50;;;7.10;98.20;;;;;;5058668;28;20028;-84
2023/02/25 09:45:35;;;;;;;5.13;0.50;;;7.10;97.60;;;;;;5071370;28;20124;-84
2023/02/25 09:48:09;;;;;;;3.93;0.40;;;7.10;97.50;;;;;;5050473;28;20028;-86
2023/02/25 09:50:40;;;;;;;1.77;0.40;;;7.00;97.40;;;;;;5076576;28;20056;-86
2023/02/25 09:53:14;;;;;;;2.33;0.40;;;7.10;97.80;;;;;;5075319;28;20021;-86
2023/02/25 09:55:42;;;;;;;2.10;0.30;;;7.30;98.10;;;;;;5076738;28;20052;-85
2023/02/25 09:58:28;;;;;;;4.07;0.80;;;7.50;98.20;;;;;;5077025;28;20553;-85
2023/02/25 10:01:03;;;;;;;3.40;0.43;;;7.70;98.30;;;;;;5080251;28;20039;-85
2023/02/25 10:03:37;;;;;;;5.97;0.40;;;8.00;98.40;;;;;;5096525;28;20039;-87
2023/02/25 10:06:15;;;;;;;3.87;0.40;;;8.20;98.20;;;;;;5100289;28;20103;-85
2023/02/25 10:09:01;;;;;;;4.23;0.50;;;8.30;97.30;;;;;;5102923;28;20107;-84
2023/02/25 10:11:55;;;;;;;3.87;0.60;;;8.60;97.80;;;;;;5103071;28;20030;-86
2023/02/25 10:14:32;;;;;;;2.10;0.40;;;8.80;96.60;;;;;;5103973;28;20024;-85
2023/02/25 10:17:17;;;;;;;1.63;0.40;;;9.00;96.00;;;;;;5102606;28;20024;-86
2023/02/25 10:20:17;;;;;;;11.90;0.97;;;9.20;95.70;;;;;;5101351;28;20024;-86
2023/02/25 10:22:48;;;;;;;4.10;0.70;;;9.30;94.90;;;;;;5101519;28;20032;-85
2023/02/25 10:25:19;;;;;;;5.80;0.40;;;9.30;93.90;;;;;;5099940;28;20024;-86
2023/02/25 10:28:00;;;;;;;5.40;0.67;;;9.40;90.40;;;;;;5098177;28;20035;-86
2023/02/25 10:30:48;;;;;;;5.50;0.60;;;9.60;91.50;;;;;;5085062;28;20028;-86
2023/02/25 10:33:21;;;;;;;4.72;0.60;;;9.80;90.70;;;;;;5075938;28;20029;-87
2023/02/25 10:35:50;;;;;;;5.85;0.95;;;9.90;90.30;;;;;;5077032;28;20024;-85
2023/02/25 10:38:16;;;;;;;6.93;1.00;;;9.80;87.90;;;;;;5075381;28;20020;-85
2023/02/25 10:40:41;;;;;;;4.35;0.98;;;9.70;82.60;;;;;;5060053;28;20570;-85
2023/02/25 10:43:23;;;;;;;6.77;0.83;;;9.50;81.10;;;;;;5077609;28;20024;-86
2023/02/25 10:45:55;;;;;;;7.47;1.17;;;9.20;77.70;;;;;;5078204;28;20065;-85
2023/02/25 10:48:23;;;;;;;9.73;0.93;;;8.90;78.00;;;;;;5075670;28;20385;-86
2023/02/25 10:51:11;;;;;;;8.90;1.30;;;8.70;78.70;;;;;;5074915;28;20029;-85
2023/02/25 10:53:57;;;;;;;6.87;0.80;;;8.60;78.80;;;;;;5075938;28;20028;-87
2023/02/25 10:56:44;;;;;;;7.33;0.80;;;8.50;78.50;;;;;;5076190;28;20112;-84
2023/02/25 10:59:30;;;;;;;8.40;0.70;;;8.20;78.50;;;;;;5080743;28;20052;-87
2023/02/25 11:01:57;;;;;;;4.60;0.70;;;7.90;77.40;;;;;;5076415;28;20028;-86
2023/02/25 11:04:36;;;;;;;6.53;0.70;;;7.60;76.80;;;;;;5094621;28;20085;-83
2023/02/25 11:07:30;;;;;;;8.43;0.90;;;7.40;77.90;;;;;;5102476;28;20051;-84
2023/02/25 11:10:18;;;;;;;10.75;0.82;;;7.10;78.90;;;;;;5104264;28;20030;-86
2023/02/25 11:13:04;;;;;;;4.73;0.63;;;7.00;79.10;;;;;;5096162;28;20032;-86
2023/02/25 11:15:37;;;;;;;9.00;0.70;;;7.00;78.20;;;;;;5085712;28;20089;-86
2023/02/25 11:18:15;;;;;;;4.60;0.70;;;6.90;78.40;;;;;;5080220;28;20033;-86
2023/02/25 11:20:58;;;;;;;6.57;0.80;;;6.90;78.70;;;;;;5082801;28;20025;-88
2023/02/25 11:23:37;;;;;;;1.77;0.60;;;6.90;78.80;;;;;;5093335;28;20089;-86
2023/02/25 11:26:05;;;;;;;6.23;1.00;;;7.40;81.30;;;;;;5095000;28;20024;-86
2023/02/25 11:28:43;;;;;;;5.63;0.77;;;8.10;83.70;;;;;;5091169;28;20028;-84
2023/02/25 11:31:17;;;;;;;5.35;0.73;;;9.00;85.50;;;;;;5097203;28;20058;-85
2023/02/25 11:33:49;;;;;;;5.57;0.60;;;9.60;81.60;;;;;;5094667;28;20059;-87
2023/02/25 11:36:22;;;;;;;10.27;0.70;;;10.00;80.80;;;;;;5095774;28;20553;-85
2023/02/25 11:38:48;;;;;;;3.33;0.50;;;10.90;81.90;;;;;;5095670;28;20081;-87
2023/02/25 11:41:21;;;;;;;5.10;0.52;;;11.40;80.50;;;;;;5078153;28;20028;-86
2023/02/25 11:43:48;;;;;;;6.65;0.60;;;12.20;78.60;;;;;;5095499;28;20063;-87
2023/02/25 11:46:20;;;;;;;6.93;0.95;;;12.60;75.00;;;;;;5077226;28;20572;-86
2023/02/25 11:49:17;;;;;;;5.97;0.70;;;13.00;71.80;;;;;;5073695;28;20024;-85
2023/02/25 11:52:01;;;;;;;5.97;1.02;;;13.60;69.20;;;;;;5074665;28;20030;-87
2023/02/25 11:54:36;;;;;;;;;;;14.30;66.80;;;;;;5074664;28;20071;-85
2023/02/25 11:57:07;;;;;;;6.38;1.20;;;14.90;65.00;;;;;;5090426;28;19927;-85
2023/02/25 11:59:48;;;;;;;6.28;0.90;;;15.00;59.30;;;;;;5074434;28;20472;-86
2023/02/25 12:02:59;;;;;;;4.35;0.70;;;14.90;55.20;;;;;;5073809;28;20082;-84
2023/02/25 12:05:39;;;;;;;7.40;1.08;;;15.00;54.60;;;;;;5032324;28;20029;-85
2023/02/25 12:08:39;;;;;;;6.80;0.85;;;15.00;54.50;;;;;;5072584;28;20069;-84
2023/02/25 12:11:11;;;;;;;5.88;0.77;;;14.70;52.40;;;;;;5073222;28;20037;-83
2023/02/25 12:14:08;;;;;;;6.93;1.20;;;14.50;51.60;;;;;;5074819;28;20024;-84
2023/02/25 12:17:01;;;;;;;5.07;0.63;;;14.00;51.80;;;;;;5059176;28;20036;-85
2023/02/25 12:19:29;;;;;;;4.50;0.50;;;13.80;52.00;;;;;;5079840;28;20027;-86
2023/02/25 12:22:26;;;;;;;6.18;0.77;;;13.50;51.70;;;;;;5094581;28;20435;-85
2023/02/25 12:25:03;;;;;;;7.47;0.93;;;13.00;51.90;;;;;;5093573;28;20054;-85
2023/02/25 12:27:51;;;;;;;4.57;0.63;;;12.70;52.30;;;;;;5109901;28;20032;-84
2023/02/25 12:30:38;;;;;;;4.10;0.60;;;12.90;54.70;;;;;;5093271;28;20024;-85
2023/02/25 12:33:30;;;;;;;6.95;0.80;;;13.60;55.90;;;;;;5093499;28;20047;-86
2023/02/25 12:36:27;;;;;;;5.53;0.75;;;14.70;54.70;;;;;;5086389;28;20047;-87
2023/02/25 12:39:18;;;;;;;6.70;0.93;;;15.50;53.50;;;;;;5076333;28;20024;-85
2023/02/25 12:41:56;;;;;;;5.80;0.80;;;16.40;52.30;;;;;;5087739;28;20123;-83
2023/02/25 12:44:51;;;;;;;5.35;1.23;;;16.90;50.00;;;;;;5092531;28;20028;-84
2023/02/25 12:47:20;;;;;;;7.68;1.30;;;17.30;49.00;;;;;;5092202;28;20036;-83
2023/02/25 12:49:45;;;;;;;3.90;0.60;;;17.70;47.30;;;;;;5091987;28;20081;-82
2023/02/25 12:52:47;;;;;;;3.85;0.68;;;18.10;46.50;;;;;;5091672;28;20040;-83
2023/02/25 12:55:40;;;;;;;4.82;0.90;;;18.50;45.90;;;;;;5092100;28;20024;-83
2023/02/25 12:58:36;;;;;;;10.15;1.52;;;18.90;44.00;;;;;;5093184;28;20095;-83
2023/02/25 13:01:11;;;;;;;4.68;0.70;;;19.30;42.70;;;;;;5090428;28;20472;-84
2023/02/25 13:03:57;;;;;;;9.43;1.33;;;19.50;42.70;;;;;;5083555;28;20035;-83
2023/02/25 13:06:59;;;;;;;6.85;0.95;;;19.30;41.60;;;;;;5093268;28;20031;-84
2023/02/25 13:09:48;;;;;;;6.13;0.90;;;19.00;39.60;;;;;;5109875;28;20066;-84